Quail, Texas
Current Conditions -  °F | °C
As of 2:17 AM on Saturday 20 Dec 2014 (Local Time) from KCDS Reporting Station
Overcast Overcast  
Wind Chill:   Ceiling: 1700
Heat Index:   Visibility: 8mi
Dew Point:   Wind: 7mph
Humidity: 92%   Direction: 190°S
Pressure: 30.19"   Gusts: NA
Location:  34.91°N, 100.4°W
Report Text: KCDS 200817Z AUTO 19006KT 8SM FEW008 OVC017 06/04 A3019 RMK AO2 T00560044
Loading
Personal Weather Stations






























Interactive Weather Map New forecast layout! Learn more

10-Day Weather Forecast

Advertisements
Track Severe Weather on mobile